Time;durP1;ratioP1;P1;durP2;ratioP2;P2;SDS_P1;SDS_P2;PMS_P1;PMS_P2;Temp;Humidity;BMP_temperature;BMP_pressure;BME280_temperature;BME280_humidity;BME280_pressure;Samples;Min_cycle;Max_cycle;Signal;HPM_P1;HPM_P2
2021/04/18 00:01:01;;;;;;;;;;;6.70;99.90;;;;;;5110842;28;19951;-68
2021/04/18 00:03:27;;;;;;;;;;;6.70;99.90;;;;;;5109744;28;19908;-69
2021/04/18 00:05:52;;;;;;;;;;;6.70;99.90;;;;;;5093910;28;19927;-71
2021/04/18 00:08:18;;;;;;;;;;;6.70;99.90;;;;;;5093704;28;19998;-72
2021/04/18 00:10:44;;;;;;;;;;;6.70;99.90;;;;;;5092800;28;19915;-72
2021/04/18 00:13:10;;;;;;;;;;;6.70;99.90;;;;;;5088614;28;20372;-71
2021/04/18 00:15:39;;;;;;;;;;;6.60;99.90;;;;;;5093593;28;19912;-70
2021/04/18 00:18:06;;;;;;;;;;;6.50;99.90;;;;;;5091321;28;19908;-71
2021/04/18 00:20:31;;;;;;;;;;;6.60;99.90;;;;;;5091992;28;20276;-70
2021/04/18 00:22:57;;;;;;;;;;;6.60;99.90;;;;;;5092098;28;19907;-71
2021/04/18 00:25:22;;;;;;;;;;;6.60;99.90;;;;;;5092034;28;19952;-71
2021/04/18 00:27:48;;;;;;;;;;;6.50;99.90;;;;;;5092058;28;20360;-71
2021/04/18 00:30:15;;;;;;;;;;;6.50;99.90;;;;;;5092961;28;19916;-71
2021/04/18 00:32:40;;;;;;;;;;;6.50;99.90;;;;;;5093251;28;19914;-71
2021/04/18 00:35:07;;;;;;;;;;;6.50;99.90;;;;;;5091728;28;20364;-71
2021/04/18 00:37:32;;;;;;;;;;;6.50;99.90;;;;;;5093108;28;19914;-71
2021/04/18 00:39:58;;;;;;;;;;;6.50;99.90;;;;;;5092179;28;20325;-71
2021/04/18 00:42:23;;;;;;;;;;;6.50;99.90;;;;;;5092924;28;20006;-71
2021/04/18 00:44:49;;;;;;;;;;;6.40;99.90;;;;;;5093486;28;20387;-71
2021/04/18 00:47:15;;;;;;;;;;;6.40;99.90;;;;;;5092184;28;20033;-72
2021/04/18 00:49:42;;;;;;;;;;;6.40;99.90;;;;;;5087732;28;19998;-73
2021/04/18 00:52:07;;;;;;;;;;;6.40;99.90;;;;;;5093478;28;19915;-69
2021/04/18 00:54:32;;;;;;;;;;;6.40;99.90;;;;;;5091740;28;19915;-71
2021/04/18 00:56:58;;;;;;;;;;;6.30;99.90;;;;;;5087356;28;20022;-71
2021/04/18 00:59:23;;;;;;;;;;;6.30;99.90;;;;;;5092258;28;19908;-73
2021/04/18 01:01:49;;;;;;;;;;;6.30;99.90;;;;;;5090821;28;19923;-71
2021/04/18 01:04:14;;;;;;;;;;;6.30;99.90;;;;;;5090885;28;19969;-72
2021/04/18 01:06:40;;;;;;;;;;;6.20;99.90;;;;;;5088240;28;19914;-72
2021/04/18 01:09:05;;;;;;;;;;;6.20;99.90;;;;;;5091756;28;19920;-71
2021/04/18 01:11:31;;;;;;;;;;;6.20;99.90;;;;;;5090264;28;20015;-70
2021/04/18 01:13:57;;;;;;;;;;;6.10;99.90;;;;;;5089488;28;19919;-72
2021/04/18 01:16:22;;;;;;;;;;;6.20;99.90;;;;;;5092756;28;19908;-71
2021/04/18 01:18:47;;;;;;;;;;;6.20;99.90;;;;;;5096005;28;19908;-72
2021/04/18 01:21:13;;;;;;;;;;;6.20;99.90;;;;;;5094946;28;19912;-71
2021/04/18 01:23:39;;;;;;;;;;;6.20;99.90;;;;;;5096278;28;20276;-71
2021/04/18 01:26:05;;;;;;;;;;;6.10;99.90;;;;;;5095302;28;19938;-71
2021/04/18 01:28:32;;;;;;;;;;;6.10;99.90;;;;;;5095409;28;19908;-71
2021/04/18 01:30:59;;;;;;;;;;;6.10;99.90;;;;;;5095531;28;19915;-71
2021/04/18 01:33:24;;;;;;;;;;;6.00;99.90;;;;;;5094970;28;20371;-71
2021/04/18 01:35:50;;;;;;;;;;;6.00;99.90;;;;;;5095324;28;19947;-72
2021/04/18 01:38:16;;;;;;;;;;;6.00;99.90;;;;;;5096064;28;19915;-72
2021/04/18 01:40:43;;;;;;;;;;;6.00;99.90;;;;;;5095833;28;19908;-71
2021/04/18 01:43:13;;;;;;;;;;;6.00;99.90;;;;;;5095009;28;19908;-72
2021/04/18 01:45:38;;;;;;;;;;;6.00;99.90;;;;;;5096629;28;20481;-71
2021/04/18 01:48:05;;;;;;;;;;;6.00;99.90;;;;;;5097238;28;19951;-72
2021/04/18 01:50:32;;;;;;;;;;;6.00;99.90;;;;;;5096943;28;20014;-72
2021/04/18 01:52:57;;;;;;;;;;;6.00;99.90;;;;;;5096944;28;19946;-71
2021/04/18 01:55:23;;;;;;;;;;;6.00;99.90;;;;;;5095316;28;19951;-71
2021/04/18 01:57:49;;;;;;;;;;;5.90;99.90;;;;;;5094505;28;19908;-71
2021/04/18 02:00:14;;;;;;;;;;;5.90;99.90;;;;;;5095310;28;19908;-70
2021/04/18 02:02:40;;;;;;;;;;;5.90;99.90;;;;;;5094089;28;19908;-70
2021/04/18 02:05:06;;;;;;;;;;;5.90;99.90;;;;;;5095467;28;19907;-71
2021/04/18 02:07:32;;;;;;;;;;;5.90;99.90;;;;;;5095692;28;19908;-71
2021/04/18 02:09:57;;;;;;;;;;;5.90;99.90;;;;;;5095487;28;19915;-70
2021/04/18 02:12:23;;;;;;;;;;;5.90;99.90;;;;;;5095871;28;20280;-71
2021/04/18 02:14:48;;;;;;;;;;;5.90;99.90;;;;;;5094520;28;19920;-72
2021/04/18 02:17:14;;;;;;;;;;;5.80;99.90;;;;;;5093710;28;19915;-71
2021/04/18 02:19:39;;;;;;;;;;;5.80;99.90;;;;;;5094777;28;20498;-70
2021/04/18 02:22:05;;;;;;;;;;;5.80;99.90;;;;;;5094728;28;19960;-70
2021/04/18 02:24:30;;;;;;;;;;;5.80;99.90;;;;;;5095310;28;19916;-71
2021/04/18 02:26:56;;;;;;;;;;;5.70;99.90;;;;;;5094191;28;19908;-71
2021/04/18 02:29:21;;;;;;;;;;;5.80;99.90;;;;;;5094609;28;19961;-73
2021/04/18 02:31:47;;;;;;;;;;;5.70;99.90;;;;;;5095377;28;19908;-73
2021/04/18 02:34:12;;;;;;;;;;;5.70;99.90;;;;;;5094881;28;20307;-74
2021/04/18 02:36:38;;;;;;;;;;;5.70;99.90;;;;;;5093521;28;19907;-71
2021/04/18 02:39:04;;;;;;;;;;;5.70;99.90;;;;;;5094976;28;19908;-72
2021/04/18 02:41:30;;;;;;;;;;;5.70;99.90;;;;;;5093346;28;20003;-72
2021/04/18 02:43:56;;;;;;;;;;;5.70;99.90;;;;;;5093361;28;19943;-71
2021/04/18 02:46:21;;;;;;;;;;;5.60;99.90;;;;;;5094679;28;19908;-72
2021/04/18 02:48:47;;;;;;;;;;;5.60;99.90;;;;;;5093405;28;19985;-70
2021/04/18 02:51:12;;;;;;;;;;;5.60;99.90;;;;;;5094242;28;19995;-71
2021/04/18 02:53:38;;;;;;;;;;;5.60;99.90;;;;;;5094916;28;20383;-70
2021/04/18 02:56:03;;;;;;;;;;;5.60;99.90;;;;;;5094898;28;20053;-72
2021/04/18 02:58:29;;;;;;;;;;;5.60;99.90;;;;;;5094500;28;19908;-71
2021/04/18 03:00:54;;;;;;;;;;;5.60;99.90;;;;;;5094377;28;19908;-71
2021/04/18 03:03:20;;;;;;;;;;;5.60;99.90;;;;;;5094756;28;19912;-71
2021/04/18 03:05:46;;;;;;;;;;;5.50;99.90;;;;;;5094385;28;19915;-71
2021/04/18 03:08:12;;;;;;;;;;;5.50;99.90;;;;;;5094927;28;19908;-73
2021/04/18 03:10:37;;;;;;;;;;;5.40;99.90;;;;;;5093251;28;19961;-72
2021/04/18 03:13:03;;;;;;;;;;;5.50;99.90;;;;;;5092789;28;19916;-72
2021/04/18 03:15:28;;;;;;;;;;;5.50;99.90;;;;;;5092517;28;19954;-71
2021/04/18 03:17:54;;;;;;;;;;;5.50;99.90;;;;;;5093425;28;20006;-71
2021/04/18 03:20:20;;;;;;;;;;;5.40;99.90;;;;;;5093560;28;20402;-71
2021/04/18 03:22:46;;;;;;;;;;;5.40;99.90;;;;;;5093878;28;19912;-70
2021/04/18 03:25:11;;;;;;;;;;;5.30;99.90;;;;;;5092668;28;19985;-71
2021/04/18 03:27:37;;;;;;;;;;;5.30;99.90;;;;;;5094554;28;19908;-70
2021/04/18 03:30:04;;;;;;;;;;;5.30;99.90;;;;;;5094306;28;19965;-70
2021/04/18 03:32:29;;;;;;;;;;;5.20;99.90;;;;;;5094036;28;19922;-71
2021/04/18 03:34:55;;;;;;;;;;;5.20;99.90;;;;;;5092835;28;19912;-71
2021/04/18 03:37:20;;;;;;;;;;;5.20;99.90;;;;;;5090765;28;19912;-71
2021/04/18 03:39:46;;;;;;;;;;;5.20;99.90;;;;;;5084438;28;19912;-71
2021/04/18 03:42:11;;;;;;;;;;;5.20;99.90;;;;;;5090802;28;20316;-72
2021/04/18 03:44:37;;;;;;;;;;;5.20;99.90;;;;;;5095701;28;19908;-73
2021/04/18 03:47:03;;;;;;;;;;;5.10;99.90;;;;;;5097683;28;19911;-72
2021/04/18 03:49:29;;;;;;;;;;;5.20;99.90;;;;;;5095851;28;19951;-71
2021/04/18 03:51:54;;;;;;;;;;;5.20;99.90;;;;;;5093743;28;19922;-72
2021/04/18 03:54:21;;;;;;;;;;;5.20;99.90;;;;;;5101174;28;19916;-68
2021/04/18 03:56:50;;;;;;;;;;;5.20;99.90;;;;;;5108769;28;19908;-71
2021/04/18 03:59:16;;;;;;;;;;;5.10;99.90;;;;;;5110574;28;20336;-71
2021/04/18 04:01:42;;;;;;;;;;;5.10;99.90;;;;;;5112398;28;19930;-74
2021/04/18 04:04:08;;;;;;;;;;;5.10;99.90;;;;;;5100307;28;19916;-68
2021/04/18 04:06:33;;;;;;;;;;;5.00;99.90;;;;;;5093094;28;19965;-72
2021/04/18 04:08:58;;;;;;;;;;;5.00;99.90;;;;;;5092122;28;19911;-72
2021/04/18 04:11:24;;;;;;;;;;;5.00;99.90;;;;;;5092200;28;19908;-71
2021/04/18 04:13:49;;;;;;;;;;;5.00;99.90;;;;;;5088934;28;19912;-72
2021/04/18 04:16:15;;;;;;;;;;;5.00;99.90;;;;;;5090289;28;19915;-72
2021/04/18 04:18:41;;;;;;;;;;;5.00;99.90;;;;;;5088827;28;19915;-73
2021/04/18 04:21:06;;;;;;;;;;;4.90;99.90;;;;;;5091691;28;19915;-72
2021/04/18 04:23:32;;;;;;;;;;;5.00;99.90;;;;;;5092362;28;19915;-73
2021/04/18 04:25:57;;;;;;;;;;;4.90;99.90;;;;;;5092322;28;19908;-72
2021/04/18 04:28:23;;;;;;;;;;;4.90;99.90;;;;;;5092259;28;20296;-71
2021/04/18 04:30:48;;;;;;;;;;;4.90;99.90;;;;;;5091376;28;19939;-71
2021/04/18 04:33:14;;;;;;;;;;;4.90;99.90;;;;;;5092036;28;19908;-71
2021/04/18 04:35:40;;;;;;;;;;;4.90;99.90;;;;;;5091523;28;20288;-71
2021/04/18 04:38:06;;;;;;;;;;;4.90;99.90;;;;;;5090643;28;20026;-72
2021/04/18 04:40:31;;;;;;;;;;;4.90;99.90;;;;;;5090509;28;19985;-72
2021/04/18 04:42:57;;;;;;;;;;;5.00;99.90;;;;;;5090890;28;19991;-72
2021/04/18 04:45:22;;;;;;;;;;;5.00;99.90;;;;;;5091652;28;19959;-72
2021/04/18 04:47:48;;;;;;;;;;;5.00;99.90;;;;;;5091917;28;19912;-72
2021/04/18 04:50:13;;;;;;;;;;;5.10;99.90;;;;;;5091471;28;20326;-73
2021/04/18 04:52:39;;;;;;;;;;;5.10;99.90;;;;;;5095101;28;19908;-72
2021/04/18 04:55:05;;;;;;;;;;;5.10;99.90;;;;;;5094715;28;19919;-72
2021/04/18 04:57:30;;;;;;;;;;;5.20;99.90;;;;;;5092385;28;20288;-71
2021/04/18 04:59:56;;;;;;;;;;;5.20;99.90;;;;;;5092880;28;19909;-72
2021/04/18 05:02:21;;;;;;;;;;;5.20;99.90;;;;;;5096163;28;20368;-71
2021/04/18 05:04:47;;;;;;;;;;;5.30;99.90;;;;;;5095537;28;19915;-71
2021/04/18 05:07:12;;;;;;;;;;;5.30;99.90;;;;;;5095959;28;19916;-70
2021/04/18 05:09:38;;;;;;;;;;;5.40;99.90;;;;;;5096416;28;19966;-75
2021/04/18 05:12:04;;;;;;;;;;;5.50;99.90;;;;;;5095426;28;19916;-73
2021/04/18 05:14:30;;;;;;;;;;;5.60;99.90;;;;;;5096346;28;19911;-72
2021/04/18 05:16:56;;;;;;;;;;;5.60;99.90;;;;;;5093538;28;20378;-71
2021/04/18 05:19:21;;;;;;;;;;;5.70;99.90;;;;;;5096058;28;20372;-72
2021/04/18 05:21:46;;;;;;;;;;;5.80;99.90;;;;;;5093599;28;19908;-72
2021/04/18 05:24:12;;;;;;;;;;;5.90;99.90;;;;;;5094167;28;19918;-71
2021/04/18 05:26:38;;;;;;;;;;;6.00;99.90;;;;;;5095085;28;19953;-72
2021/04/18 05:29:03;;;;;;;;;;;6.00;99.90;;;;;;5094286;28;20411;-71
2021/04/18 05:31:29;;;;;;;;;;;6.10;99.90;;;;;;5095959;28;19931;-71
2021/04/18 05:33:54;;;;;;;;;;;6.20;99.90;;;;;;5094999;28;19919;-74
2021/04/18 05:36:20;;;;;;;;;;;6.20;99.90;;;;;;5093495;28;19912;-71
2021/04/18 05:38:45;;;;;;;;;;;6.30;99.90;;;;;;5093292;28;20006;-70
2021/04/18 05:41:11;;;;;;;;;;;6.30;99.90;;;;;;5092180;28;19916;-74
2021/04/18 05:43:36;;;;;;;;;;;6.30;99.90;;;;;;5095653;28;19908;-71
2021/04/18 05:46:02;;;;;;;;;;;6.40;99.90;;;;;;5099085;28;19955;-72
2021/04/18 05:48:28;;;;;;;;;;;6.40;99.90;;;;;;5097202;28;19916;-72
2021/04/18 05:50:53;;;;;;;;;;;6.50;99.90;;;;;;5098613;28;19916;-71
2021/04/18 05:53:19;;;;;;;;;;;6.50;99.90;;;;;;5113639;28;20380;-71
2021/04/18 05:55:44;;;;;;;;;;;6.50;99.90;;;;;;5114757;28;19912;-69
2021/04/18 05:58:11;;;;;;;;;;;6.60;99.90;;;;;;5114433;28;19908;-69
2021/04/18 06:00:37;;;;;;;;;;;6.60;99.90;;;;;;5101033;28;20010;-71
2021/04/18 06:03:03;;;;;;;;;;;6.70;99.90;;;;;;5094274;28;19951;-72
2021/04/18 06:05:28;;;;;;;;;;;6.70;99.90;;;;;;5095347;28;19916;-72
2021/04/18 06:07:54;;;;;;;;;;;6.70;99.90;;;;;;5092282;28;20007;-72
2021/04/18 06:10:19;;;;;;;;;;;6.70;99.90;;;;;;5094652;28;19908;-72
2021/04/18 06:12:45;;;;;;;;;;;6.80;99.90;;;;;;5094846;28;20010;-72
2021/04/18 06:15:10;;;;;;;;;;;6.90;99.90;;;;;;5093482;28;19931;-72
2021/04/18 06:17:36;;;;;;;;;;;7.00;99.90;;;;;;5092335;28;19915;-72
2021/04/18 06:20:02;;;;;;;;;;;7.00;99.90;;;;;;5092481;28;19938;-72
2021/04/18 06:22:28;;;;;;;;;;;7.10;99.90;;;;;;5094362;28;19908;-72
2021/04/18 06:24:53;;;;;;;;;;;7.10;99.90;;;;;;5094422;28;19908;-72
2021/04/18 06:27:19;;;;;;;;;;;7.20;99.90;;;;;;5095109;28;20372;-71
2021/04/18 06:29:44;;;;;;;;;;;7.20;99.90;;;;;;5093245;28;19908;-71
2021/04/18 06:32:10;;;;;;;;;;;7.20;99.90;;;;;;5094770;28;19915;-72
2021/04/18 06:34:35;;;;;;;;;;;7.20;99.90;;;;;;5094484;28;19961;-72
2021/04/18 06:37:01;;;;;;;;;;;7.30;99.90;;;;;;5093490;28;20246;-72
2021/04/18 06:39:27;;;;;;;;;;;7.20;99.90;;;;;;5094667;28;19954;-72
2021/04/18 06:41:53;;;;;;;;;;;7.20;99.90;;;;;;5093991;28;19919;-72
2021/04/18 06:44:19;;;;;;;;;;;7.20;99.90;;;;;;5093990;28;19923;-72
2021/04/18 06:46:47;;;;;;;;;;;7.40;99.90;;;;;;5095124;28;19960;-72
2021/04/18 06:49:13;;;;;;;;;;;7.50;99.90;;;;;;5094625;28;20081;-72
2021/04/18 06:51:39;;;;;;;;;;;7.60;99.90;;;;;;5094416;28;19931;-73
2021/04/18 06:54:05;;;;;;;;;;;7.80;99.90;;;;;;5093919;28;19912;-72
2021/04/18 06:56:30;;;;;;;;;;;7.80;99.90;;;;;;5093213;28;19908;-72
2021/04/18 06:58:59;;;;;;;;;;;7.80;99.90;;;;;;5093765;28;20375;-73
2021/04/18 07:01:24;;;;;;;;;;;8.00;99.90;;;;;;5094277;28;19914;-72
2021/04/18 07:04:08;;;;;;;;;;;8.10;99.90;;;;;;5094650;28;19999;-71
2021/04/18 07:06:38;;;;;;;;;;;8.20;99.90;;;;;;5088356;28;20315;-73
2021/04/18 07:09:03;;;;;;;;;;;8.30;99.90;;;;;;5091837;28;19915;-72
2021/04/18 07:11:40;;;;;;;;;;;8.50;99.90;;;;;;5094224;28;20283;-73
2021/04/18 07:14:17;;;;;;;;;;;8.50;99.90;;;;;;5093918;28;19912;-72
2021/04/18 07:16:43;;;;;;;;;;;8.40;99.90;;;;;;5087387;28;19912;-72
2021/04/18 07:19:17;;;;;;;;;;;8.30;99.90;;;;;;5091432;28;20007;-73
2021/04/18 07:21:46;;;;;;;;;;;8.40;99.90;;;;;;5086443;28;19931;-72
2021/04/18 07:24:11;;;;;;;;;;;8.50;99.90;;;;;;5092648;28;19973;-72
2021/04/18 07:26:37;;;;;;;;;;;8.60;99.90;;;;;;5093711;28;19912;-72
2021/04/18 07:29:16;;;;;;;;;;;8.70;99.90;;;;;;5095100;28;20007;-72
2021/04/18 07:31:42;;;;;;;;;;;8.70;99.90;;;;;;5099420;28;20011;-73
2021/04/18 07:34:08;;;;;;;;;;;9.00;99.90;;;;;;5096908;28;19919;-72
2021/04/18 07:36:35;;;;;;;;;;;9.00;99.90;;;;;;5097537;28;19947;-73
2021/04/18 07:39:00;;;;;;;;;;;9.00;99.90;;;;;;5105213;28;19907;-72
2021/04/18 07:41:26;;;;;;;;;;;8.90;99.90;;;;;;5111023;28;19915;-72
2021/04/18 07:43:52;;;;;;;;;;;8.90;99.90;;;;;;5112346;28;19930;-69
2021/04/18 07:46:18;;;;;;;;;;;9.10;99.90;;;;;;5110645;28;19908;-70
2021/04/18 07:48:44;;;;;;;;;;;9.00;99.90;;;;;;5091831;28;19916;-71
2021/04/18 07:51:10;;;;;;;;;;;9.00;99.90;;;;;;5092834;28;19915;-72
2021/04/18 07:53:37;;;;;;;;;;;9.00;99.90;;;;;;5091205;28;19915;-72
2021/04/18 07:56:12;;;;;;;;;;;9.10;99.90;;;;;;5093378;28;19950;-72
2021/04/18 07:58:38;;;;;;;;;;;9.20;99.90;;;;;;5090634;28;19915;-73
2021/04/18 08:01:05;;;;;;;;;;;9.30;99.90;;;;;;5087764;28;19908;-73
2021/04/18 08:03:31;;;;;;;;;;;9.30;99.90;;;;;;5089886;28;19908;-72
2021/04/18 08:05:56;;;;;;;;;;;9.50;99.90;;;;;;5092650;28;19931;-72
2021/04/18 08:08:22;;;;;;;;;;;9.70;99.90;;;;;;5092496;28;20356;-71
2021/04/18 08:10:49;;;;;;;;;;;9.70;99.90;;;;;;5092598;28;19908;-71
2021/04/18 08:13:15;;;;;;;;;;;9.90;99.90;;;;;;5091113;28;19990;-71
2021/04/18 08:15:53;;;;;;;;;;;10.00;99.90;;;;;;5092707;28;19927;-72
2021/04/18 08:18:26;;;;;;;;;;;10.00;99.90;;;;;;5091339;28;19915;-71
2021/04/18 08:20:52;;;;;;;;;;;10.20;99.90;;;;;;5088271;28;19908;-71
2021/04/18 08:23:18;;;;;;;;;;;10.20;99.90;;;;;;5089415;28;19939;-72
2021/04/18 08:26:02;;;;;;;;;;;10.10;99.90;;;;;;5093550;28;19939;-71
2021/04/18 08:28:27;;;;;;;;;;;10.10;99.90;;;;;;5096074;28;19926;-71
2021/04/18 08:30:59;;;;;;;;;;;10.30;99.90;;;;;;5096028;28;19912;-72
2021/04/18 08:33:39;;;;;;;;;;;10.40;99.90;;;;;;5095442;28;19927;-73
2021/04/18 08:36:18;;;;;;;;;;;10.60;99.90;;;;;;5095390;28;19923;-72
2021/04/18 08:38:45;;;;;;;;;;;10.60;99.90;;;;;;5092040;28;19908;-72
2021/04/18 08:41:14;;;;;;;;;;;10.60;99.90;;;;;;5095552;28;20318;-72
2021/04/18 08:43:46;;;;;;;;;;;10.80;99.90;;;;;;5092074;28;19913;-71
2021/04/18 08:46:13;;;;;;;;;;;11.10;99.90;;;;;;5095554;28;19914;-71
2021/04/18 08:48:38;;;;;;;;;;;11.10;99.90;;;;;;5091460;28;19916;-72
2021/04/18 08:51:08;;;;;;;;;;;11.10;99.90;;;;;;5088819;28;19923;-72
2021/04/18 08:53:52;;;;;;;;;;;11.20;99.90;;;;;;5096199;28;20443;-72
2021/04/18 08:56:17;;;;;;;;;;;11.30;99.90;;;;;;5095597;28;20284;-72
2021/04/18 08:58:43;;;;;;;;;;;11.40;99.90;;;;;;5094515;28;19915;-72
2021/04/18 09:01:13;;;;;;;;;;;11.40;99.90;;;;;;5094217;28;19954;-72
2021/04/18 09:03:39;;;;;;;;;;;11.50;99.90;;;;;;5093909;28;19915;-73
2021/04/18 09:06:18;;;;;;;;;;;11.40;99.90;;;;;;5095473;28;20414;-72
2021/04/18 09:08:53;;;;;;;;;;;11.60;99.90;;;;;;5093072;28;19911;-73
2021/04/18 09:11:19;;;;;;;;;;;11.60;99.90;;;;;;5093164;28;19911;-72
2021/04/18 09:13:58;;;;;;;;;;;12.00;99.90;;;;;;5094813;28;19908;-72
2021/04/18 09:16:27;;;;;;;;;;;11.90;99.90;;;;;;5101713;28;20334;-72
2021/04/18 09:18:53;;;;;;;;;;;12.00;99.90;;;;;;5094505;28;20343;-72
2021/04/18 09:21:20;;;;;;;;;;;12.30;99.90;;;;;;5093206;28;19916;-71
2021/04/18 09:23:59;;;;;;;;;;;12.20;99.90;;;;;;5093590;28;20371;-72
2021/04/18 09:26:25;;;;;;;;;;;12.50;99.90;;;;;;5102524;28;19916;-74
2021/04/18 09:29:09;;;;;;;;;;;12.60;99.90;;;;;;5107540;28;20328;-72
2021/04/18 09:31:51;;;;;;;;;;;12.60;99.90;;;;;;5111726;28;19908;-74
2021/04/18 09:34:18;;;;;;;;;;;13.10;99.90;;;;;;5112996;28;19971;-73
2021/04/18 09:36:44;;;;;;;;;;;13.50;99.90;;;;;;5101510;28;19908;-73
2021/04/18 09:39:09;;;;;;;;;;;13.60;99.90;;;;;;5096992;28;20283;-73
2021/04/18 09:41:36;;;;;;;;;;;13.70;99.90;;;;;;5095758;28;19908;-72
2021/04/18 09:44:02;;;;;;;;;;;13.80;99.90;;;;;;5096566;28;19943;-73
2021/04/18 09:46:27;;;;;;;;;;;13.80;99.90;;;;;;5096140;28;19975;-73
2021/04/18 09:48:59;;;;;;;;;;;13.70;99.90;;;;;;5095508;28;19959;-72
2021/04/18 09:51:25;;;;;;;;;;;13.60;99.90;;;;;;5091934;28;19916;-72
2021/04/18 09:54:00;;;;;;;;;;;14.00;99.90;;;;;;5093204;28;19912;-71
2021/04/18 09:56:26;;;;;;;;;;;14.20;99.90;;;;;;5092016;28;19908;-73
2021/04/18 09:58:51;;;;;;;;;;;14.40;99.90;;;;;;5094029;28;19914;-73
2021/04/18 10:01:24;;;;;;;;;;;14.40;99.90;;;;;;5095379;28;19955;-73
2021/04/18 10:03:50;;;;;;;;;;;14.60;99.90;;;;;;5094747;28;19939;-73
2021/04/18 10:06:15;;;;;;;;;;;15.00;99.90;;;;;;5094793;28;19908;-73
2021/04/18 10:08:51;;;;;;;;;;;15.10;99.90;;;;;;5095411;28;19908;-73
2021/04/18 10:11:17;;;;;;;;;;;15.00;99.90;;;;;;5094407;28;19911;-73
2021/04/18 10:13:44;;;;;;;;;;;15.00;99.90;;;;;;5091613;28;20378;-74
2021/04/18 10:16:11;;;;;;;;;;;15.20;99.90;;;;;;5093352;28;19916;-73
2021/04/18 10:18:37;;;;;;;;;;;15.30;99.90;;;;;;5093362;28;19915;-73
2021/04/18 10:21:19;;;;;;;;;;;14.50;99.90;;;;;;5094438;28;19937;-73
2021/04/18 10:23:46;;;;;;;;;;;14.60;99.90;;;;;;5094467;28;19961;-73
2021/04/18 10:26:12;;;;;;;;;;;14.70;99.90;;;;;;5093866;28;20291;-74
2021/04/18 10:28:37;;;;;;;;;;;14.70;99.90;;;;;;5094119;28;20014;-73
2021/04/18 10:31:03;;;;;;;;;;;15.10;99.90;;;;;;5086168;28;19912;-74
2021/04/18 10:33:28;;;;;;;;;;;15.20;99.90;;;;;;5079073;28;19908;-73
2021/04/18 10:35:55;;;;;;;;;;;15.20;99.90;;;;;;5088067;28;20553;-73
2021/04/18 10:38:20;;;;;;;;;;;15.30;99.90;;;;;;5095183;28;19995;-72
2021/04/18 10:40:46;;;;;;;;;;;15.50;99.60;;;;;;5095642;28;20285;-72
2021/04/18 10:43:12;;;;;;;;;;;15.40;99.80;;;;;;5093967;28;19947;-73
2021/04/18 10:45:38;;;;;;;;;;;15.60;99.50;;;;;;5093693;28;19904;-73
2021/04/18 10:48:05;;;;;;;;;;;15.60;98.90;;;;;;5094088;28;19969;-72
2021/04/18 10:50:30;;;;;;;;;;;15.80;97.50;;;;;;5090213;28;19939;-72
2021/04/18 10:52:56;;;;;;;;;;;15.70;96.00;;;;;;5095265;28;20280;-72
2021/04/18 10:55:21;;;;;;;;;;;15.60;97.10;;;;;;5094230;28;19998;-72
2021/04/18 10:57:47;;;;;;;;;;;15.00;96.90;;;;;;5093462;28;20053;-73
2021/04/18 11:00:13;;;;;;;;;;;15.00;97.80;;;;;;5094662;28;19973;-72
2021/04/18 11:02:38;;;;;;;;;;;15.10;96.80;;;;;;5095066;28;19939;-73
2021/04/18 11:05:04;;;;;;;;;;;15.20;97.10;;;;;;5094607;28;19908;-72
2021/04/18 11:07:31;;;;;;;;;;;15.10;96.30;;;;;;5094831;28;20008;-72
2021/04/18 11:09:56;;;;;;;;;;;15.10;96.20;;;;;;5094800;28;20352;-72
2021/04/18 11:12:22;;;;;;;;;;;15.00;97.00;;;;;;5093264;28;19965;-72
2021/04/18 11:14:48;;;;;;;;;;;15.00;96.90;;;;;;5094376;28;19957;-72
2021/04/18 11:17:14;;;;;;;;;;;15.10;96.70;;;;;;5094420;28;19907;-72
2021/04/18 11:19:39;;;;;;;;;;;15.30;96.50;;;;;;5094153;28;19911;-72
2021/04/18 11:22:05;;;;;;;;;;;15.30;96.20;;;;;;5094881;28;19995;-73
2021/04/18 11:24:30;;;;;;;;;;;15.50;96.70;;;;;;5094581;28;19947;-73
2021/04/18 11:26:56;;;;;;;;;;;15.50;96.30;;;;;;5093268;28;19911;-73
2021/04/18 11:29:22;;;;;;;;;;;15.40;96.60;;;;;;5092143;28;19908;-73
2021/04/18 11:31:47;;;;;;;;;;;15.40;96.10;;;;;;5087335;28;19908;-73
2021/04/18 11:34:13;;;;;;;;;;;15.50;96.10;;;;;;5083922;28;19927;-73
2021/04/18 11:36:38;;;;;;;;;;;15.50;96.40;;;;;;5089240;28;19916;-73
2021/04/18 11:39:04;;;;;;;;;;;15.70;95.80;;;;;;5087392;28;19904;-73
2021/04/18 11:41:33;;;;;;;;;;;15.70;96.10;;;;;;5089003;28;19908;-73
2021/04/18 11:43:59;;;;;;;;;;;15.80;95.50;;;;;;5085935;28;20341;-74
2021/04/18 11:46:26;;;;;;;;;;;15.70;95.70;;;;;;5084873;28;19915;-73
2021/04/18 11:48:52;;;;;;;;;;;15.60;95.70;;;;;;5082962;28;20010;-71
2021/04/18 11:51:18;;;;;;;;;;;15.70;95.20;;;;;;5087893;28;20355;-71
2021/04/18 11:53:43;;;;;;;;;;;15.70;94.60;;;;;;5087235;28;20002;-73
2021/04/18 11:56:09;;;;;;;;;;;15.70;95.70;;;;;;5088934;28;19908;-74
2021/04/18 11:58:34;;;;;;;;;;;15.80;95.10;;;;;;5094429;28;19912;-73
2021/04/18 12:01:00;;;;;;;;;;;15.90;95.10;;;;;;5108348;28;19915;-73
2021/04/18 12:03:25;;;;;;;;;;;15.90;94.80;;;;;;5103859;28;19975;-73
2021/04/18 12:05:53;;;;;;;;;;;16.10;95.20;;;;;;5106684;28;19908;-73
2021/04/18 12:08:19;;;;;;;;;;;16.10;95.40;;;;;;5106468;28;19915;-74
2021/04/18 12:10:44;;;;;;;;;;;16.20;95.70;;;;;;5100610;28;19908;-74
2021/04/18 12:13:10;;;;;;;;;;;16.00;95.00;;;;;;5116784;28;19940;-73
2021/04/18 12:15:35;;;;;;;;;;;16.00;94.90;;;;;;5114269;28;19915;-73
2021/04/18 12:18:01;;;;;;;;;;;15.80;96.30;;;;;;5111583;28;19900;-74
2021/04/18 12:20:29;;;;;;;;;;;15.90;96.30;;;;;;5107730;28;19903;-74
2021/04/18 12:22:55;;;;;;;;;;;16.00;95.30;;;;;;5104685;28;19920;-72
2021/04/18 12:25:20;;;;;;;;;;;16.10;95.60;;;;;;5100623;28;19908;-73
2021/04/18 12:27:46;;;;;;;;;;;16.20;95.70;;;;;;5096138;28;19957;-73
2021/04/18 12:30:12;;;;;;;;;;;16.20;96.30;;;;;;5087321;28;19975;-72
2021/04/18 12:32:38;;;;;;;;;;;16.20;95.30;;;;;;5077468;28;19966;-73
2021/04/18 12:35:07;;;;;;;;;;;16.30;95.60;;;;;;5094184;28;19912;-73
2021/04/18 12:37:32;;;;;;;;;;;16.30;94.50;;;;;;5093272;28;19912;-73
2021/04/18 12:39:58;;;;;;;;;;;15.90;94.80;;;;;;5092781;28;20340;-72
2021/04/18 12:42:23;;;;;;;;;;;15.80;95.30;;;;;;5093188;28;19915;-73
2021/04/18 12:44:51;;;;;;;;;;;15.80;94.90;;;;;;5093835;28;20265;-74
2021/04/18 12:47:17;;;;;;;;;;;16.10;95.10;;;;;;5093708;28;20002;-73
2021/04/18 12:49:42;;;;;;;;;;;16.50;95.10;;;;;;5092208;28;19927;-73
2021/04/18 12:52:08;;;;;;;;;;;16.50;94.30;;;;;;5093279;28;19908;-72
2021/04/18 12:54:34;;;;;;;;;;;16.90;93.40;;;;;;5093980;28;20374;-72
2021/04/18 12:57:00;;;;;;;;;;;17.00;94.20;;;;;;5086354;28;19915;-73
2021/04/18 12:59:25;;;;;;;;;;;17.10;94.30;;;;;;5092522;28;19908;-73
2021/04/18 13:01:51;;;;;;;;;;;17.20;93.90;;;;;;5093515;28;20264;-70
2021/04/18 13:04:16;;;;;;;;;;;17.40;94.20;;;;;;5092485;28;19950;-71
2021/04/18 13:06:42;;;;;;;;;;;17.60;93.00;;;;;;5093665;28;19919;-72
2021/04/18 13:09:08;;;;;;;;;;;17.90;93.00;;;;;;5093088;28;19908;-72
2021/04/18 13:11:33;;;;;;;;;;;18.00;92.90;;;;;;5094537;28;19915;-74
2021/04/18 13:13:59;;;;;;;;;;;17.90;92.50;;;;;;5096734;28;19912;-72
2021/04/18 13:16:24;;;;;;;;;;;17.90;93.20;;;;;;5097815;28;20014;-73
2021/04/18 13:18:50;;;;;;;;;;;17.80;93.40;;;;;;5097417;28;19908;-73
2021/04/18 13:21:16;;;;;;;;;;;17.90;93.30;;;;;;5097392;28;20276;-73
2021/04/18 13:23:41;;;;;;;;;;;18.00;93.10;;;;;;5096161;28;19907;-73
2021/04/18 13:26:07;;;;;;;;;;;18.00;91.40;;;;;;5096810;28;19915;-72
2021/04/18 13:28:32;;;;;;;;;;;17.90;92.50;;;;;;5096971;28;19912;-72
2021/04/18 13:30:58;;;;;;;;;;;18.10;91.80;;;;;;5097102;28;19908;-73
2021/04/18 13:33:23;;;;;;;;;;;18.30;90.80;;;;;;5096801;28;20311;-73
2021/04/18 13:35:49;;;;;;;;;;;18.30;90.30;;;;;;5095889;28;19911;-74
2021/04/18 13:38:14;;;;;;;;;;;18.10;90.90;;;;;;5095944;28;19915;-73
2021/04/18 13:40:41;;;;;;;;;;;18.10;90.90;;;;;;5095821;28;19908;-74
2021/04/18 13:43:11;;;;;;;;;;;18.20;90.30;;;;;;5084654;28;19954;-74
2021/04/18 13:45:37;;;;;;;;;;;18.20;90.50;;;;;;5095270;28;19908;-71
2021/04/18 13:48:02;;;;;;;;;;;18.20;91.10;;;;;;5096626;28;19912;-74
2021/04/18 13:50:28;;;;;;;;;;;18.40;86.60;;;;;;5096076;28;19916;-74
2021/04/18 13:52:53;;;;;;;;;;;17.90;88.00;;;;;;5095546;28;19912;-72
2021/04/18 13:55:19;;;;;;;;;;;17.70;88.20;;;;;;5095243;28;19926;-72
2021/04/18 13:57:44;;;;;;;;;;;17.60;88.30;;;;;;5096190;28;19908;-72
2021/04/18 14:00:11;;;;;;;;;;;17.30;90.50;;;;;;5096118;28;20287;-73
2021/04/18 14:02:37;;;;;;;;;;;17.20;90.00;;;;;;5095110;28;19908;-74
2021/04/18 14:05:04;;;;;;;;;;;16.70;90.30;;;;;;5093831;28;20406;-73
2021/04/18 14:07:29;;;;;;;;;;;16.80;91.20;;;;;;5096086;28;19908;-72
2021/04/18 14:09:55;;;;;;;;;;;16.70;91.40;;;;;;5096162;28;19908;-73
2021/04/18 14:12:21;;;;;;;;;;;17.00;91.10;;;;;;5094773;28;19908;-73
2021/04/18 14:14:46;;;;;;;;;;;17.00;91.20;;;;;;5107922;28;20018;-74
2021/04/18 14:17:12;;;;;;;;;;;17.10;90.90;;;;;;5095096;28;19912;-73
2021/04/18 14:19:37;;;;;;;;;;;17.30;90.10;;;;;;5096253;28;19915;-73